sensor_id;sensor_type;location;lat;lon;timestamp;temperature;humidity
19050;DHT22;9657;45.940;12.840;2022-08-20T00:01:43;27.60;54.50
19050;DHT22;9657;45.940;12.840;2022-08-20T00:04:11;27.60;54.50
19050;DHT22;9657;45.940;12.840;2022-08-20T00:06:40;27.60;54.50
19050;DHT22;9657;45.940;12.840;2022-08-20T00:09:07;27.60;54.50
19050;DHT22;9657;45.940;12.840;2022-08-20T00:11:35;27.60;54.50
19050;DHT22;9657;45.940;12.840;2022-08-20T00:14:04;27.60;54.50
19050;DHT22;9657;45.940;12.840;2022-08-20T00:16:34;27.60;54.50
19050;DHT22;9657;45.940;12.840;2022-08-20T00:19:03;27.60;54.50
19050;DHT22;9657;45.940;12.840;2022-08-20T00:21:31;27.60;54.50
19050;DHT22;9657;45.940;12.840;2022-08-20T00:23:59;27.60;54.50
19050;DHT22;9657;45.940;12.840;2022-08-20T00:26:26;27.60;54.50
19050;DHT22;9657;45.940;12.840;2022-08-20T00:28:53;27.50;54.40
19050;DHT22;9657;45.940;12.840;2022-08-20T00:31:22;27.60;54.50
19050;DHT22;9657;45.940;12.840;2022-08-20T00:33:50;27.50;54.50
19050;DHT22;9657;45.940;12.840;2022-08-20T00:36:19;27.60;54.50
19050;DHT22;9657;45.940;12.840;2022-08-20T00:38:46;27.50;54.40
19050;DHT22;9657;45.940;12.840;2022-08-20T00:41:19;27.50;54.40
19050;DHT22;9657;45.940;12.840;2022-08-20T00:43:49;27.50;54.40
19050;DHT22;9657;45.940;12.840;2022-08-20T00:46:19;27.50;54.40
19050;DHT22;9657;45.940;12.840;2022-08-20T00:48:49;27.50;54.40
19050;DHT22;9657;45.940;12.840;2022-08-20T00:51:22;27.50;54.40
19050;DHT22;9657;45.940;12.840;2022-08-20T00:53:53;27.50;54.40
19050;DHT22;9657;45.940;12.840;2022-08-20T00:56:22;27.50;54.40
19050;DHT22;9657;45.940;12.840;2022-08-20T00:58:51;27.50;54.40
19050;DHT22;9657;45.940;12.840;2022-08-20T01:03:54;27.50;55.10
19050;DHT22;9657;45.940;12.840;2022-08-20T01:06:22;27.50;54.40
19050;DHT22;9657;45.940;12.840;2022-08-20T01:08:50;27.50;54.40
19050;DHT22;9657;45.940;12.840;2022-08-20T01:11:17;27.50;54.40
19050;DHT22;9657;45.940;12.840;2022-08-20T01:13:48;27.50;54.40
19050;DHT22;9657;45.940;12.840;2022-08-20T01:16:20;27.50;54.40
19050;DHT22;9657;45.940;12.840;2022-08-20T01:18:49;27.50;54.40
19050;DHT22;9657;45.940;12.840;2022-08-20T01:21:19;27.50;54.40
19050;DHT22;9657;45.940;12.840;2022-08-20T01:23:56;27.50;54.40
19050;DHT22;9657;45.940;12.840;2022-08-20T01:26:29;27.50;54.40
19050;DHT22;9657;45.940;12.840;2022-08-20T01:29:01;27.50;54.40
19050;DHT22;9657;45.940;12.840;2022-08-20T01:31:30;27.50;54.40
19050;DHT22;9657;45.940;12.840;2022-08-20T01:33:59;27.50;54.40
19050;DHT22;9657;45.940;12.840;2022-08-20T01:36:29;27.50;54.40
19050;DHT22;9657;45.940;12.840;2022-08-20T01:38:57;27.50;54.40
19050;DHT22;9657;45.940;12.840;2022-08-20T01:41:40;27.50;54.40
19050;DHT22;9657;45.940;12.840;2022-08-20T01:44:11;27.40;54.30
19050;DHT22;9657;45.940;12.840;2022-08-20T01:46:41;27.50;54.40
19050;DHT22;9657;45.940;12.840;2022-08-20T01:49:12;27.40;54.30
19050;DHT22;9657;45.940;12.840;2022-08-20T01:51:40;27.40;54.30
19050;DHT22;9657;45.940;12.840;2022-08-20T01:54:08;27.40;54.30
19050;DHT22;9657;45.940;12.840;2022-08-20T01:56:51;27.50;54.40
19050;DHT22;9657;45.940;12.840;2022-08-20T01:59:18;27.40;54.30
19050;DHT22;9657;45.940;12.840;2022-08-20T02:01:46;27.40;54.30
19050;DHT22;9657;45.940;12.840;2022-08-20T02:04:13;27.50;54.30
19050;DHT22;9657;45.940;12.840;2022-08-20T02:06:44;27.40;54.20
19050;DHT22;9657;45.940;12.840;2022-08-20T02:09:12;27.40;54.30
19050;DHT22;9657;45.940;12.840;2022-08-20T02:11:42;27.40;54.30
19050;DHT22;9657;45.940;12.840;2022-08-20T02:14:11;27.40;54.30
19050;DHT22;9657;45.940;12.840;2022-08-20T02:16:40;27.40;54.20
19050;DHT22;9657;45.940;12.840;2022-08-20T02:19:11;27.40;54.30
19050;DHT22;9657;45.940;12.840;2022-08-20T02:21:42;27.40;54.30
19050;DHT22;9657;45.940;12.840;2022-08-20T02:24:10;27.40;54.20
19050;DHT22;9657;45.940;12.840;2022-08-20T02:26:38;27.40;54.20
19050;DHT22;9657;45.940;12.840;2022-08-20T02:29:08;27.40;54.20
19050;DHT22;9657;45.940;12.840;2022-08-20T02:31:37;27.40;54.20
19050;DHT22;9657;45.940;12.840;2022-08-20T02:34:05;27.40;54.20
19050;DHT22;9657;45.940;12.840;2022-08-20T02:36:34;27.40;54.20
19050;DHT22;9657;45.940;12.840;2022-08-20T02:39:03;27.40;54.20
19050;DHT22;9657;45.940;12.840;2022-08-20T02:41:31;27.40;54.20
19050;DHT22;9657;45.940;12.840;2022-08-20T02:43:58;27.40;54.20
19050;DHT22;9657;45.940;12.840;2022-08-20T02:46:27;27.40;54.20
19050;DHT22;9657;45.940;12.840;2022-08-20T02:48:54;27.40;54.20
19050;DHT22;9657;45.940;12.840;2022-08-20T02:51:21;27.40;54.20
19050;DHT22;9657;45.940;12.840;2022-08-20T02:53:49;27.40;54.20
19050;DHT22;9657;45.940;12.840;2022-08-20T02:56:16;27.40;54.20
19050;DHT22;9657;45.940;12.840;2022-08-20T02:58:44;27.40;54.20
19050;DHT22;9657;45.940;12.840;2022-08-20T03:01:14;27.40;54.20
19050;DHT22;9657;45.940;12.840;2022-08-20T03:03:43;27.40;54.20
19050;DHT22;9657;45.940;12.840;2022-08-20T03:06:12;27.40;54.20
19050;DHT22;9657;45.940;12.840;2022-08-20T03:08:39;27.40;54.10
19050;DHT22;9657;45.940;12.840;2022-08-20T03:11:07;27.40;54.20
19050;DHT22;9657;45.940;12.840;2022-08-20T03:13:34;27.30;54.80
19050;DHT22;9657;45.940;12.840;2022-08-20T03:16:02;27.30;54.10
19050;DHT22;9657;45.940;12.840;2022-08-20T03:18:32;27.30;54.10
19050;DHT22;9657;45.940;12.840;2022-08-20T03:21:02;27.40;54.20
19050;DHT22;9657;45.940;12.840;2022-08-20T03:23:30;27.40;54.80
19050;DHT22;9657;45.940;12.840;2022-08-20T03:25:57;27.30;54.10
19050;DHT22;9657;45.940;12.840;2022-08-20T03:28:24;27.40;54.30
19050;DHT22;9657;45.940;12.840;2022-08-20T03:30:51;27.30;54.10
19050;DHT22;9657;45.940;12.840;2022-08-20T03:33:20;27.30;54.10
19050;DHT22;9657;45.940;12.840;2022-08-20T03:35:47;27.30;54.10
19050;DHT22;9657;45.940;12.840;2022-08-20T03:38:17;27.30;54.10
19050;DHT22;9657;45.940;12.840;2022-08-20T03:40:45;27.30;54.20
19050;DHT22;9657;45.940;12.840;2022-08-20T03:43:12;27.30;54.10
19050;DHT22;9657;45.940;12.840;2022-08-20T03:45:40;27.30;54.20
19050;DHT22;9657;45.940;12.840;2022-08-20T03:48:10;27.30;54.20
19050;DHT22;9657;45.940;12.840;2022-08-20T03:50:37;27.30;54.20
19050;DHT22;9657;45.940;12.840;2022-08-20T03:53:07;27.30;54.20
19050;DHT22;9657;45.940;12.840;2022-08-20T03:55:36;27.30;54.20
19050;DHT22;9657;45.940;12.840;2022-08-20T03:58:05;27.30;54.20
19050;DHT22;9657;45.940;12.840;2022-08-20T04:00:35;27.30;54.30
19050;DHT22;9657;45.940;12.840;2022-08-20T04:03:03;27.30;54.20
19050;DHT22;9657;45.940;12.840;2022-08-20T04:05:31;27.30;54.20
19050;DHT22;9657;45.940;12.840;2022-08-20T04:08:00;27.30;54.20
19050;DHT22;9657;45.940;12.840;2022-08-20T04:10:28;27.30;54.20
19050;DHT22;9657;45.940;12.840;2022-08-20T04:12:57;27.30;54.20
19050;DHT22;9657;45.940;12.840;2022-08-20T04:15:24;27.30;54.30
19050;DHT22;9657;45.940;12.840;2022-08-20T04:17:51;27.30;54.20
19050;DHT22;9657;45.940;12.840;2022-08-20T04:20:21;27.30;54.20
19050;DHT22;9657;45.940;12.840;2022-08-20T04:22:49;27.30;54.20
19050;DHT22;9657;45.940;12.840;2022-08-20T04:25:16;27.30;54.20
19050;DHT22;9657;45.940;12.840;2022-08-20T04:27:43;27.20;54.20
19050;DHT22;9657;45.940;12.840;2022-08-20T04:30:13;27.30;54.20
19050;DHT22;9657;45.940;12.840;2022-08-20T04:32:40;27.30;54.20
19050;DHT22;9657;45.940;12.840;2022-08-20T04:35:09;27.20;54.10
19050;DHT22;9657;45.940;12.840;2022-08-20T04:37:38;27.20;54.10
19050;DHT22;9657;45.940;12.840;2022-08-20T04:40:07;27.20;54.10
19050;DHT22;9657;45.940;12.840;2022-08-20T04:42:53;27.20;54.10
19050;DHT22;9657;45.940;12.840;2022-08-20T04:45:21;27.30;54.10
19050;DHT22;9657;45.940;12.840;2022-08-20T04:47:48;27.30;54.20
19050;DHT22;9657;45.940;12.840;2022-08-20T04:50:17;27.20;54.00
19050;DHT22;9657;45.940;12.840;2022-08-20T04:52:45;27.20;54.10
19050;DHT22;9657;45.940;12.840;2022-08-20T04:55:13;27.20;54.70
19050;DHT22;9657;45.940;12.840;2022-08-20T04:57:41;27.20;54.10
19050;DHT22;9657;45.940;12.840;2022-08-20T05:00:11;27.20;54.00
19050;DHT22;9657;45.940;12.840;2022-08-20T05:02:41;27.20;54.10
19050;DHT22;9657;45.940;12.840;2022-08-20T05:05:08;27.20;54.00
19050;DHT22;9657;45.940;12.840;2022-08-20T05:07:38;27.20;54.00
19050;DHT22;9657;45.940;12.840;2022-08-20T05:10:07;27.20;54.00
19050;DHT22;9657;45.940;12.840;2022-08-20T05:12:35;27.20;54.00
19050;DHT22;9657;45.940;12.840;2022-08-20T05:15:03;27.20;54.00
19050;DHT22;9657;45.940;12.840;2022-08-20T05:17:30;27.20;54.00
19050;DHT22;9657;45.940;12.840;2022-08-20T05:19:58;27.20;54.00
19050;DHT22;9657;45.940;12.840;2022-08-20T05:22:26;27.20;54.00
19050;DHT22;9657;45.940;12.840;2022-08-20T05:24:53;27.20;54.00
19050;DHT22;9657;45.940;12.840;2022-08-20T05:27:23;27.20;54.00
19050;DHT22;9657;45.940;12.840;2022-08-20T05:29:52;27.20;54.00
19050;DHT22;9657;45.940;12.840;2022-08-20T05:32:19;27.20;54.00
19050;DHT22;9657;45.940;12.840;2022-08-20T05:34:46;27.20;54.00
19050;DHT22;9657;45.940;12.840;2022-08-20T05:37:15;27.20;53.90
19050;DHT22;9657;45.940;12.840;2022-08-20T05:39:42;27.20;53.90
19050;DHT22;9657;45.940;12.840;2022-08-20T05:42:09;27.20;53.90
19050;DHT22;9657;45.940;12.840;2022-08-20T05:44:37;27.20;53.90
19050;DHT22;9657;45.940;12.840;2022-08-20T05:47:04;27.20;53.90
19050;DHT22;9657;45.940;12.840;2022-08-20T05:49:31;27.20;53.90
19050;DHT22;9657;45.940;12.840;2022-08-20T05:51:59;27.20;53.90
19050;DHT22;9657;45.940;12.840;2022-08-20T05:54:28;27.20;53.90
19050;DHT22;9657;45.940;12.840;2022-08-20T05:56:55;27.20;53.90
19050;DHT22;9657;45.940;12.840;2022-08-20T05:59:22;27.20;53.80
19050;DHT22;9657;45.940;12.840;2022-08-20T06:01:50;27.20;53.80
19050;DHT22;9657;45.940;12.840;2022-08-20T06:04:17;27.20;53.80
19050;DHT22;9657;45.940;12.840;2022-08-20T06:06:50;27.20;53.80
19050;DHT22;9657;45.940;12.840;2022-08-20T06:09:20;27.20;53.80
19050;DHT22;9657;45.940;12.840;2022-08-20T06:11:49;27.20;53.80
19050;DHT22;9657;45.940;12.840;2022-08-20T06:14:16;27.20;53.80
19050;DHT22;9657;45.940;12.840;2022-08-20T06:16:43;27.20;53.80
19050;DHT22;9657;45.940;12.840;2022-08-20T06:19:11;27.20;53.80
19050;DHT22;9657;45.940;12.840;2022-08-20T06:21:38;27.20;53.80
19050;DHT22;9657;45.940;12.840;2022-08-20T06:24:05;27.20;53.80
19050;DHT22;9657;45.940;12.840;2022-08-20T06:26:33;27.20;53.80
19050;DHT22;9657;45.940;12.840;2022-08-20T06:29:03;27.20;53.80
19050;DHT22;9657;45.940;12.840;2022-08-20T06:31:31;27.20;53.80
19050;DHT22;9657;45.940;12.840;2022-08-20T06:33:59;27.20;53.80
19050;DHT22;9657;45.940;12.840;2022-08-20T06:36:26;27.20;53.80
19050;DHT22;9657;45.940;12.840;2022-08-20T06:38:53;27.20;53.90
19050;DHT22;9657;45.940;12.840;2022-08-20T06:41:20;27.20;53.90
19050;DHT22;9657;45.940;12.840;2022-08-20T06:43:47;27.20;53.90
19050;DHT22;9657;45.940;12.840;2022-08-20T06:46:20;27.20;53.90
19050;DHT22;9657;45.940;12.840;2022-08-20T06:48:48;27.20;53.90
19050;DHT22;9657;45.940;12.840;2022-08-20T06:51:16;27.20;53.90
19050;DHT22;9657;45.940;12.840;2022-08-20T06:53:45;27.20;53.90
19050;DHT22;9657;45.940;12.840;2022-08-20T06:56:12;27.20;53.90
19050;DHT22;9657;45.940;12.840;2022-08-20T06:58:39;27.20;53.90
19050;DHT22;9657;45.940;12.840;2022-08-20T07:01:07;27.20;53.80
19050;DHT22;9657;45.940;12.840;2022-08-20T07:03:37;27.20;53.80
19050;DHT22;9657;45.940;12.840;2022-08-20T07:06:06;27.20;53.80
19050;DHT22;9657;45.940;12.840;2022-08-20T07:08:34;27.20;53.80
19050;DHT22;9657;45.940;12.840;2022-08-20T07:11:01;27.20;53.80
19050;DHT22;9657;45.940;12.840;2022-08-20T07:13:29;27.20;53.70
19050;DHT22;9657;45.940;12.840;2022-08-20T07:15:56;27.20;53.70
19050;DHT22;9657;45.940;12.840;2022-08-20T07:18:23;27.20;53.70
19050;DHT22;9657;45.940;12.840;2022-08-20T07:20:52;27.20;53.70
19050;DHT22;9657;45.940;12.840;2022-08-20T07:23:21;27.20;53.70
19050;DHT22;9657;45.940;12.840;2022-08-20T07:25:49;27.20;53.70
19050;DHT22;9657;45.940;12.840;2022-08-20T07:28:18;27.20;53.70
19050;DHT22;9657;45.940;12.840;2022-08-20T07:30:47;27.20;53.70
19050;DHT22;9657;45.940;12.840;2022-08-20T07:33:32;27.20;53.70
19050;DHT22;9657;45.940;12.840;2022-08-20T07:36:02;27.20;53.60
19050;DHT22;9657;45.940;12.840;2022-08-20T07:38:30;27.20;53.70
19050;DHT22;9657;45.940;12.840;2022-08-20T07:40:59;27.20;53.60
19050;DHT22;9657;45.940;12.840;2022-08-20T07:43:27;27.20;53.60
19050;DHT22;9657;45.940;12.840;2022-08-20T07:45:56;27.20;53.60
19050;DHT22;9657;45.940;12.840;2022-08-20T07:48:26;27.20;53.60
19050;DHT22;9657;45.940;12.840;2022-08-20T07:50:54;27.20;53.60
19050;DHT22;9657;45.940;12.840;2022-08-20T07:53:22;27.20;53.60
19050;DHT22;9657;45.940;12.840;2022-08-20T07:55:49;27.20;53.60
19050;DHT22;9657;45.940;12.840;2022-08-20T07:58:19;27.20;53.60
19050;DHT22;9657;45.940;12.840;2022-08-20T08:00:47;27.20;53.60
19050;DHT22;9657;45.940;12.840;2022-08-20T08:03:14;27.20;53.60
19050;DHT22;9657;45.940;12.840;2022-08-20T08:05:43;27.20;53.60
19050;DHT22;9657;45.940;12.840;2022-08-20T08:08:14;27.20;53.50
19050;DHT22;9657;45.940;12.840;2022-08-20T08:10:45;27.20;53.50
19050;DHT22;9657;45.940;12.840;2022-08-20T08:13:13;27.20;53.50
19050;DHT22;9657;45.940;12.840;2022-08-20T08:15:44;27.20;53.50
19050;DHT22;9657;45.940;12.840;2022-08-20T08:18:16;27.20;53.50
19050;DHT22;9657;45.940;12.840;2022-08-20T08:20:47;27.20;53.80
19050;DHT22;9657;45.940;12.840;2022-08-20T08:23:15;27.20;53.50
19050;DHT22;9657;45.940;12.840;2022-08-20T08:25:44;27.20;53.50
19050;DHT22;9657;45.940;12.840;2022-08-20T08:28:12;27.20;53.50
19050;DHT22;9657;45.940;12.840;2022-08-20T08:30:39;27.20;53.50
19050;DHT22;9657;45.940;12.840;2022-08-20T08:33:07;27.20;53.50
19050;DHT22;9657;45.940;12.840;2022-08-20T08:35:51;27.20;53.40
19050;DHT22;9657;45.940;12.840;2022-08-20T08:38:19;27.20;53.50
19050;DHT22;9657;45.940;12.840;2022-08-20T08:40:50;27.20;53.50
19050;DHT22;9657;45.940;12.840;2022-08-20T08:43:20;27.20;53.50
19050;DHT22;9657;45.940;12.840;2022-08-20T08:45:55;27.30;53.60
19050;DHT22;9657;45.940;12.840;2022-08-20T08:48:29;27.20;53.50
19050;DHT22;9657;45.940;12.840;2022-08-20T08:50:58;27.30;53.60
19050;DHT22;9657;45.940;12.840;2022-08-20T08:53:30;27.20;53.50
19050;DHT22;9657;45.940;12.840;2022-08-20T08:56:03;27.30;53.70
19050;DHT22;9657;45.940;12.840;2022-08-20T08:58:30;27.30;53.60
19050;DHT22;9657;45.940;12.840;2022-08-20T09:01:02;27.30;53.50
19050;DHT22;9657;45.940;12.840;2022-08-20T09:03:30;27.30;53.60
19050;DHT22;9657;45.940;12.840;2022-08-20T09:06:01;27.30;53.60
19050;DHT22;9657;45.940;12.840;2022-08-20T09:08:31;27.30;53.50
19050;DHT22;9657;45.940;12.840;2022-08-20T09:11:05;27.30;53.50
19050;DHT22;9657;45.940;12.840;2022-08-20T09:13:33;27.30;53.60
19050;DHT22;9657;45.940;12.840;2022-08-20T09:16:00;27.30;54.20
19050;DHT22;9657;45.940;12.840;2022-08-20T09:18:27;27.30;53.50
19050;DHT22;9657;45.940;12.840;2022-08-20T09:20:55;27.30;53.50
19050;DHT22;9657;45.940;12.840;2022-08-20T09:23:22;27.30;53.50
19050;DHT22;9657;45.940;12.840;2022-08-20T09:25:49;27.40;53.50
19050;DHT22;9657;45.940;12.840;2022-08-20T09:28:17;27.40;53.30
19050;DHT22;9657;45.940;12.840;2022-08-20T09:30:44;27.40;53.10
19050;DHT22;9657;45.940;12.840;2022-08-20T09:33:11;27.40;53.00
19050;DHT22;9657;45.940;12.840;2022-08-20T09:35:39;27.50;53.00
19050;DHT22;9657;45.940;12.840;2022-08-20T09:38:06;27.50;52.80
19050;DHT22;9657;45.940;12.840;2022-08-20T09:40:33;27.50;52.80
19050;DHT22;9657;45.940;12.840;2022-08-20T09:43:00;27.50;52.80
19050;DHT22;9657;45.940;12.840;2022-08-20T09:45:29;27.50;52.80
19050;DHT22;9657;45.940;12.840;2022-08-20T09:47:57;27.60;52.80
19050;DHT22;9657;45.940;12.840;2022-08-20T09:50:24;27.50;52.50
19050;DHT22;9657;45.940;12.840;2022-08-20T09:52:53;27.50;52.40
19050;DHT22;9657;45.940;12.840;2022-08-20T09:55:23;27.60;52.30
19050;DHT22;9657;45.940;12.840;2022-08-20T09:57:52;27.60;52.30
19050;DHT22;9657;45.940;12.840;2022-08-20T10:00:20;27.60;52.20
19050;DHT22;9657;45.940;12.840;2022-08-20T10:02:48;27.60;52.10
19050;DHT22;9657;45.940;12.840;2022-08-20T10:05:15;27.60;52.00
19050;DHT22;9657;45.940;12.840;2022-08-20T10:07:42;27.70;52.10
19050;DHT22;9657;45.940;12.840;2022-08-20T10:10:12;27.60;52.00
19050;DHT22;9657;45.940;12.840;2022-08-20T10:12:39;27.70;52.00
19050;DHT22;9657;45.940;12.840;2022-08-20T10:15:09;27.70;52.00
19050;DHT22;9657;45.940;12.840;2022-08-20T10:17:37;27.70;51.90
19050;DHT22;9657;45.940;12.840;2022-08-20T10:20:09;27.70;51.90
19050;DHT22;9657;45.940;12.840;2022-08-20T10:22:36;27.70;51.90
19050;DHT22;9657;45.940;12.840;2022-08-20T10:25:04;27.70;51.80
19050;DHT22;9657;45.940;12.840;2022-08-20T10:27:32;27.70;51.80
19050;DHT22;9657;45.940;12.840;2022-08-20T10:29:59;27.70;51.70
19050;DHT22;9657;45.940;12.840;2022-08-20T10:32:26;27.80;51.70
19050;DHT22;9657;45.940;12.840;2022-08-20T10:34:53;27.70;51.60
19050;DHT22;9657;45.940;12.840;2022-08-20T10:37:23;27.80;51.80
19050;DHT22;9657;45.940;12.840;2022-08-20T10:39:51;27.70;51.60
19050;DHT22;9657;45.940;12.840;2022-08-20T10:42:18;27.80;51.70
19050;DHT22;9657;45.940;12.840;2022-08-20T10:44:45;27.80;51.70
19050;DHT22;9657;45.940;12.840;2022-08-20T10:47:15;27.80;51.60
19050;DHT22;9657;45.940;12.840;2022-08-20T10:49:42;27.80;51.60
19050;DHT22;9657;45.940;12.840;2022-08-20T10:52:09;27.80;51.60
19050;DHT22;9657;45.940;12.840;2022-08-20T10:54:38;27.80;51.50
19050;DHT22;9657;45.940;12.840;2022-08-20T10:57:07;27.80;51.50
19050;DHT22;9657;45.940;12.840;2022-08-20T10:59:37;27.80;51.60
19050;DHT22;9657;45.940;12.840;2022-08-20T11:02:05;27.80;51.60
19050;DHT22;9657;45.940;12.840;2022-08-20T11:04:32;27.80;51.60
19050;DHT22;9657;45.940;12.840;2022-08-20T11:07:10;27.80;51.70
19050;DHT22;9657;45.940;12.840;2022-08-20T11:09:38;27.80;51.70
19050;DHT22;9657;45.940;12.840;2022-08-20T11:12:06;27.80;51.70
19050;DHT22;9657;45.940;12.840;2022-08-20T11:14:33;27.80;51.60
19050;DHT22;9657;45.940;12.840;2022-08-20T11:17:00;27.80;51.60
19050;DHT22;9657;45.940;12.840;2022-08-20T11:19:28;27.80;51.60
19050;DHT22;9657;45.940;12.840;2022-08-20T11:21:55;27.80;51.60
19050;DHT22;9657;45.940;12.840;2022-08-20T11:24:22;27.80;51.50
19050;DHT22;9657;45.940;12.840;2022-08-20T11:26:51;27.80;51.50
19050;DHT22;9657;45.940;12.840;2022-08-20T11:29:19;27.80;51.50
19050;DHT22;9657;45.940;12.840;2022-08-20T11:31:47;27.80;51.60
19050;DHT22;9657;45.940;12.840;2022-08-20T11:34:14;27.80;51.60
19050;DHT22;9657;45.940;12.840;2022-08-20T11:36:42;27.80;51.50
19050;DHT22;9657;45.940;12.840;2022-08-20T11:39:09;27.90;51.50
19050;DHT22;9657;45.940;12.840;2022-08-20T11:41:36;27.80;52.20
19050;DHT22;9657;45.940;12.840;2022-08-20T11:44:05;27.80;51.40
19050;DHT22;9657;45.940;12.840;2022-08-20T11:46:32;27.80;51.40
19050;DHT22;9657;45.940;12.840;2022-08-20T11:48:59;27.80;51.50
19050;DHT22;9657;45.940;12.840;2022-08-20T11:51:26;27.80;51.50
19050;DHT22;9657;45.940;12.840;2022-08-20T11:53:53;27.80;51.50
19050;DHT22;9657;45.940;12.840;2022-08-20T11:56:20;27.80;51.50
19050;DHT22;9657;45.940;12.840;2022-08-20T11:58:47;27.80;51.60
19050;DHT22;9657;45.940;12.840;2022-08-20T12:01:16;27.80;51.60
19050;DHT22;9657;45.940;12.840;2022-08-20T12:03:43;27.80;51.60
19050;DHT22;9657;45.940;12.840;2022-08-20T12:06:10;27.80;51.60
19050;DHT22;9657;45.940;12.840;2022-08-20T12:08:37;27.80;51.70
19050;DHT22;9657;45.940;12.840;2022-08-20T12:11:04;27.80;51.70
19050;DHT22;9657;45.940;12.840;2022-08-20T12:13:33;27.80;51.70
19050;DHT22;9657;45.940;12.840;2022-08-20T12:16:00;27.80;51.70
19050;DHT22;9657;45.940;12.840;2022-08-20T12:18:29;27.80;51.70
19050;DHT22;9657;45.940;12.840;2022-08-20T12:20:56;27.90;51.80
19050;DHT22;9657;45.940;12.840;2022-08-20T12:23:23;27.80;51.70
19050;DHT22;9657;45.940;12.840;2022-08-20T12:25:50;27.80;51.70
19050;DHT22;9657;45.940;12.840;2022-08-20T12:28:17;27.90;51.80
19050;DHT22;9657;45.940;12.840;2022-08-20T12:30:44;27.80;52.30
19050;DHT22;9657;45.940;12.840;2022-08-20T12:33:11;27.80;51.70
19050;DHT22;9657;45.940;12.840;2022-08-20T12:35:40;27.80;51.60
19050;DHT22;9657;45.940;12.840;2022-08-20T12:38:07;27.90;51.60
19050;DHT22;9657;45.940;12.840;2022-08-20T12:40:35;27.90;51.70
19050;DHT22;9657;45.940;12.840;2022-08-20T12:43:02;27.80;51.60
19050;DHT22;9657;45.940;12.840;2022-08-20T12:45:30;27.90;51.90
19050;DHT22;9657;45.940;12.840;2022-08-20T12:48:03;27.90;51.70
19050;DHT22;9657;45.940;12.840;2022-08-20T12:50:31;27.80;51.70
19050;DHT22;9657;45.940;12.840;2022-08-20T12:53:00;27.90;51.70
19050;DHT22;9657;45.940;12.840;2022-08-20T12:55:28;27.90;51.70
19050;DHT22;9657;45.940;12.840;2022-08-20T12:57:57;27.90;51.70
19050;DHT22;9657;45.940;12.840;2022-08-20T13:00:27;27.90;51.60
19050;DHT22;9657;45.940;12.840;2022-08-20T13:02:56;27.90;51.50
19050;DHT22;9657;45.940;12.840;2022-08-20T13:05:23;27.90;51.50
19050;DHT22;9657;45.940;12.840;2022-08-20T13:07:51;27.90;51.50
19050;DHT22;9657;45.940;12.840;2022-08-20T13:10:21;27.90;51.50
19050;DHT22;9657;45.940;12.840;2022-08-20T13:12:49;27.90;51.50
19050;DHT22;9657;45.940;12.840;2022-08-20T13:15:17;27.90;51.50
19050;DHT22;9657;45.940;12.840;2022-08-20T13:17:44;27.90;51.40
19050;DHT22;9657;45.940;12.840;2022-08-20T13:20:14;27.90;51.30
19050;DHT22;9657;45.940;12.840;2022-08-20T13:22:43;27.90;51.40
19050;DHT22;9657;45.940;12.840;2022-08-20T13:25:11;27.90;51.40
19050;DHT22;9657;45.940;12.840;2022-08-20T13:27:41;27.90;51.40
19050;DHT22;9657;45.940;12.840;2022-08-20T13:30:11;27.90;51.50
19050;DHT22;9657;45.940;12.840;2022-08-20T13:32:39;28.00;51.60
19050;DHT22;9657;45.940;12.840;2022-08-20T13:35:07;27.90;51.50
19050;DHT22;9657;45.940;12.840;2022-08-20T13:37:36;27.90;51.40
19050;DHT22;9657;45.940;12.840;2022-08-20T13:40:04;27.90;51.40
19050;DHT22;9657;45.940;12.840;2022-08-20T13:42:32;27.90;51.30
19050;DHT22;9657;45.940;12.840;2022-08-20T13:45:02;27.90;51.40
19050;DHT22;9657;45.940;12.840;2022-08-20T13:47:31;27.90;51.30
19050;DHT22;9657;45.940;12.840;2022-08-20T13:50:02;27.90;51.40
19050;DHT22;9657;45.940;12.840;2022-08-20T13:52:31;28.00;51.40
19050;DHT22;9657;45.940;12.840;2022-08-20T13:54:58;27.90;51.30
19050;DHT22;9657;45.940;12.840;2022-08-20T13:57:26;27.90;51.40
19050;DHT22;9657;45.940;12.840;2022-08-20T13:59:55;27.90;51.40
19050;DHT22;9657;45.940;12.840;2022-08-20T14:02:24;28.00;51.40
19050;DHT22;9657;45.940;12.840;2022-08-20T14:04:52;27.90;51.30
19050;DHT22;9657;45.940;12.840;2022-08-20T14:07:21;28.00;51.40
19050;DHT22;9657;45.940;12.840;2022-08-20T14:09:51;28.00;51.50
19050;DHT22;9657;45.940;12.840;2022-08-20T14:12:18;27.90;51.40
19050;DHT22;9657;45.940;12.840;2022-08-20T14:14:47;28.00;52.10
19050;DHT22;9657;45.940;12.840;2022-08-20T14:17:17;28.00;51.40
19050;DHT22;9657;45.940;12.840;2022-08-20T14:19:47;27.90;51.30
19050;DHT22;9657;45.940;12.840;2022-08-20T14:22:15;28.00;51.40
19050;DHT22;9657;45.940;12.840;2022-08-20T14:24:43;28.00;51.40
19050;DHT22;9657;45.940;12.840;2022-08-20T14:27:11;28.00;51.40
19050;DHT22;9657;45.940;12.840;2022-08-20T14:29:41;28.00;51.40
19050;DHT22;9657;45.940;12.840;2022-08-20T14:32:08;28.00;51.40
19050;DHT22;9657;45.940;12.840;2022-08-20T14:34:36;28.00;51.40
19050;DHT22;9657;45.940;12.840;2022-08-20T14:37:12;28.00;51.40
19050;DHT22;9657;45.940;12.840;2022-08-20T14:39:40;28.00;51.40
19050;DHT22;9657;45.940;12.840;2022-08-20T14:42:08;28.00;51.40
19050;DHT22;9657;45.940;12.840;2022-08-20T14:44:35;28.00;51.40
19050;DHT22;9657;45.940;12.840;2022-08-20T14:47:14;28.00;51.40
19050;DHT22;9657;45.940;12.840;2022-08-20T14:49:41;27.90;51.40
19050;DHT22;9657;45.940;12.840;2022-08-20T14:52:10;28.00;51.50
19050;DHT22;9657;45.940;12.840;2022-08-20T14:54:38;28.00;51.50
19050;DHT22;9657;45.940;12.840;2022-08-20T14:57:06;28.00;51.60
19050;DHT22;9657;45.940;12.840;2022-08-20T14:59:34;28.00;51.70
19050;DHT22;9657;45.940;12.840;2022-08-20T15:02:02;28.00;51.60
19050;DHT22;9657;45.940;12.840;2022-08-20T15:04:30;28.00;51.70
19050;DHT22;9657;45.940;12.840;2022-08-20T15:06:57;28.00;51.70
19050;DHT22;9657;45.940;12.840;2022-08-20T15:09:28;28.00;51.70
19050;DHT22;9657;45.940;12.840;2022-08-20T15:11:56;28.00;51.70
19050;DHT22;9657;45.940;12.840;2022-08-20T15:14:23;28.00;51.60
19050;DHT22;9657;45.940;12.840;2022-08-20T15:16:50;28.00;51.70
19050;DHT22;9657;45.940;12.840;2022-08-20T15:19:17;28.00;51.70
19050;DHT22;9657;45.940;12.840;2022-08-20T15:21:45;28.00;51.70
19050;DHT22;9657;45.940;12.840;2022-08-20T15:24:12;28.00;51.70
19050;DHT22;9657;45.940;12.840;2022-08-20T15:26:41;28.00;51.70
19050;DHT22;9657;45.940;12.840;2022-08-20T15:29:08;28.00;51.80
19050;DHT22;9657;45.940;12.840;2022-08-20T15:31:35;28.00;51.70
19050;DHT22;9657;45.940;12.840;2022-08-20T15:34:02;28.00;51.70
19050;DHT22;9657;45.940;12.840;2022-08-20T15:36:29;28.00;51.80
19050;DHT22;9657;45.940;12.840;2022-08-20T15:38:56;28.00;51.80
19050;DHT22;9657;45.940;12.840;2022-08-20T15:41:23;28.00;51.80